Time;durP1;ratioP1;P1;durP2;ratioP2;P2;SDS_P1;SDS_P2;PMS_P1;PMS_P2;Temp;Humidity;BMP_temperature;BMP_pressure;BME280_temperature;BME280_humidity;BME280_pressure;Samples;Min_cycle;Max_cycle;Signal;HPM_P1;HPM_P2
2023/03/31 00:00:29;;;;;;;3.85;1.60;;;;;;;;;;5084635;28;20204;-67
2023/03/31 00:02:57;;;;;;;2.75;1.42;;;;;;;;;;5084362;28;20200;-67
2023/03/31 00:05:23;;;;;;;2.88;1.50;;;;;;;;;;5084726;28;20196;-69
2023/03/31 00:07:53;;;;;;;2.22;1.50;;;;;;;;;;5084589;28;20569;-69
2023/03/31 00:10:19;;;;;;;4.05;2.08;;;;;;;;;;5084414;28;20322;-69
2023/03/31 00:12:46;;;;;;;4.15;1.98;;;;;;;;;;5084153;28;20201;-69
2023/03/31 00:15:13;;;;;;;3.17;1.30;;;;;;;;;;5084500;28;20205;-69
2023/03/31 00:17:39;;;;;;;3.88;1.58;;;;;;;;;;5084306;28;20519;-69
2023/03/31 00:20:10;;;;;;;5.57;1.85;;;;;;;;;;5084425;28;20443;-69
2023/03/31 00:22:37;;;;;;;1.83;1.33;;;;;;;;;;5084163;28;20496;-69
2023/03/31 00:25:04;;;;;;;2.90;1.73;;;;;;;;;;5084349;28;20200;-69
2023/03/31 00:27:30;;;;;;;3.97;1.45;;;;;;;;;;5084132;28;20413;-69
2023/03/31 00:29:57;;;;;;;1.52;1.27;;;;;;;;;;5084008;28;20196;-69
2023/03/31 00:32:24;;;;;;;3.80;1.40;;;;;;;;;;5083222;28;20549;-69
2023/03/31 00:34:50;;;;;;;3.28;1.42;;;;;;;;;;5084109;28;20273;-68
2023/03/31 00:37:16;;;;;;;6.22;2.20;;;;;;;;;;5083984;28;20258;-68
2023/03/31 00:39:42;;;;;;;4.80;1.88;;;;;;;;;;5084028;28;20204;-68
2023/03/31 00:42:11;;;;;;;5.22;1.60;;;;;;;;;;5083704;28;20242;-68
2023/03/31 00:44:39;;;;;;;7.22;1.77;;;;;;;;;;5083914;28;20236;-68
2023/03/31 00:47:12;;;;;;;4.75;2.20;;;;;;;;;;5083671;28;20200;-68
2023/03/31 00:49:39;;;;;;;4.03;2.42;;;;;;;;;;5084009;28;20306;-68
2023/03/31 00:52:07;;;;;;;4.30;2.45;;;;;;;;;;5083591;28;20201;-68
2023/03/31 00:54:34;;;;;;;1.85;1.75;;;;;;;;;;5083897;28;20425;-68
2023/03/31 00:57:02;;;;;;;4.68;2.15;;;;;;;;;;5083497;28;20296;-68
2023/03/31 00:59:30;;;;;;;3.03;1.58;;;;;;;;;;5083716;28;20375;-68
2023/03/31 01:01:58;;;;;;;4.20;1.90;;;;;;;;;;5083513;28;20434;-68
2023/03/31 01:04:25;;;;;;;1.58;1.48;;;;;;;;;;5083505;28;20196;-68
2023/03/31 01:06:59;;;;;;;2.70;1.63;;;;;;;;;;5083371;28;20193;-68
2023/03/31 01:09:29;;;;;;;3.65;1.98;;;;;;;;;;5083222;28;20508;-68
2023/03/31 01:11:56;;;;;;;4.72;2.00;;;;;;;;;;5082948;28;20207;-68
2023/03/31 01:14:22;;;;;;;3.45;1.60;;;;;;;;;;5083345;28;20499;-68
2023/03/31 01:16:52;;;;;;;2.22;1.55;;;;;;;;;;5083306;28;20531;-68
2023/03/31 01:19:24;;;;;;;2.13;1.58;;;;;;;;;;5083141;28;20208;-68
2023/03/31 01:22:06;;;;;;;5.38;1.75;;;;;;;;;;5082828;28;20500;-68
2023/03/31 01:24:50;;;;;;;2.30;1.58;;;;;;;;;;5075380;28;20208;-68
2023/03/31 01:27:24;;;;;;;3.65;1.67;;;;;;;;;;5082902;28;20306;-68
2023/03/31 01:30:10;;;;;;;5.32;1.90;;;;;;;;;;5083453;28;20484;-68
2023/03/31 01:32:45;;;;;;;6.07;1.85;;;;;;;;;;5075422;28;20267;-68
2023/03/31 01:35:28;;;;;;;10.02;2.72;;;;;;;;;;5082886;28;20200;-68
2023/03/31 01:38:17;;;;;;;8.80;3.25;;;;;;;;;;5082723;28;20258;-68
2023/03/31 01:40:53;;;;;;;7.75;3.33;;;;;;;;;;5082677;28;20259;-68
2023/03/31 01:43:23;;;;;;;7.68;3.65;;;;;;;;;;5082451;28;20199;-68
2023/03/31 01:45:55;;;;;;;4.45;3.20;;;;;;;;;;5082725;28;20208;-68
2023/03/31 01:48:24;;;;;;;5.63;2.35;;;;;;;;;;5082430;28;20220;-68
2023/03/31 01:50:53;;;;;;;4.30;2.55;;;;;;;;;;5082078;28;20212;-68
2023/03/31 01:53:22;;;;;;;7.68;2.60;;;;;;;;;;5082353;28;20204;-68
2023/03/31 01:55:54;;;;;;;4.15;2.03;;;;;;;;;;5082459;28;20196;-68
2023/03/31 01:58:22;;;;;;;5.30;2.20;;;;;;;;;;5082251;28;20578;-68
2023/03/31 02:00:55;;;;;;;6.85;2.67;;;;;;;;;;5082323;28;20201;-68
2023/03/31 02:03:24;;;;;;;7.38;2.88;;;;;;;;;;5082151;28;20216;-68
2023/03/31 02:05:52;;;;;;;4.85;2.35;;;;;;;;;;5082459;28;20197;-68
2023/03/31 02:08:22;;;;;;;4.97;2.47;;;;;;;;;;5082270;28;20227;-68
2023/03/31 02:10:49;;;;;;;5.05;2.63;;;;;;;;;;5082277;28;20219;-68
2023/03/31 02:13:17;;;;;;;7.82;2.17;;;;;;;;;;5081962;28;20439;-68
2023/03/31 02:15:46;;;;;;;2.97;2.25;;;;;;;;;;5082039;28;20527;-68
2023/03/31 02:18:17;;;;;;;6.13;2.15;;;;;;;;;;5082150;28;20224;-68
2023/03/31 02:20:46;;;;;;;2.78;2.33;;;;;;;;;;5082499;28;20196;-68
2023/03/31 02:23:13;;;;;;;5.40;2.45;;;;;;;;;;5081606;28;20523;-68
2023/03/31 02:25:45;;;;;;;6.57;2.60;;;;;;;;;;5082197;28;20197;-68
2023/03/31 02:28:14;;;;;;;4.30;1.80;;;;;;;;;;5081837;28;20265;-68
2023/03/31 02:30:45;;;;;;;5.78;2.15;;;;;;;;;;5082224;28;20496;-68
2023/03/31 02:33:11;;;;;;;3.20;2.05;;;;;;;;;;5081986;28;20412;-68
2023/03/31 02:35:38;;;;;;;5.15;1.90;;;;;;;;;;5081820;28;20203;-68
2023/03/31 02:38:05;;;;;;;5.93;2.00;;;;;;;;;;5081892;28;20542;-68
2023/03/31 02:40:31;;;;;;;5.95;1.58;;;;;;;;;;5081764;28;20264;-68
2023/03/31 02:42:58;;;;;;;7.90;2.20;;;;;;;;;;5081459;28;20500;-68
2023/03/31 02:45:38;;;;;;;5.90;2.10;;;;;;;;;;5081857;28;20200;-68
2023/03/31 02:48:06;;;;;;;3.97;2.20;;;;;;;;;;5081796;28;20196;-68
2023/03/31 02:50:36;;;;;;;5.93;1.83;;;;;;;;;;5082198;28;20200;-68
2023/03/31 02:53:08;;;;;;;6.85;2.13;;;;;;;;;;5081617;28;20203;-68
2023/03/31 02:55:42;;;;;;;5.63;2.08;;;;;;;;;;5085708;28;20208;-68
2023/03/31 02:58:33;;;;;;;2.88;1.77;;;;;;;;;;5086066;28;20282;-68
2023/03/31 03:01:14;;;;;;;8.25;1.90;;;;;;;;;;5080966;28;20397;-68
2023/03/31 03:03:47;;;;;;;5.20;1.42;;;;;;;;;;5077242;28;20477;-68
2023/03/31 03:06:21;;;;;;;3.28;1.70;;;;;;;;;;5085555;28;20200;-68
2023/03/31 03:08:54;;;;;;;3.13;1.60;;;;;;;;;;5085798;28;20496;-68
2023/03/31 03:11:22;;;;;;;4.22;1.88;;;;;;;;;;5085362;28;20204;-68
2023/03/31 03:13:50;;;;;;;2.58;1.77;;;;;;;;;;5085452;28;20196;-68
2023/03/31 03:16:20;;;;;;;3.72;1.55;;;;;;;;;;5085365;28;20536;-68
2023/03/31 03:18:55;;;;;;;4.32;1.55;;;;;;;;;;5085566;28;20615;-68
2023/03/31 03:21:21;;;;;;;2.45;1.65;;;;;;;;;;5085268;28;20241;-68
2023/03/31 03:23:47;;;;;;;2.10;1.60;;;;;;;;;;5085176;28;20197;-68
2023/03/31 03:26:13;;;;;;;2.65;1.83;;;;;;;;;;5085323;28;20575;-68
2023/03/31 03:28:40;;;;;;;2.03;1.70;;;;;;;;;;5085153;28;20223;-68
2023/03/31 03:31:08;;;;;;;3.10;1.60;;;;;;;;;;5085457;28;20245;-68
2023/03/31 03:33:34;;;;;;;4.15;1.88;;;;;;;;;;5085120;28;20197;-68
2023/03/31 03:36:02;;;;;;;1.70;1.60;;;;;;;;;;5085271;28;20201;-68
2023/03/31 03:38:28;;;;;;;5.25;2.10;;;;;;;;;;5084770;28;20226;-68
2023/03/31 03:40:54;;;;;;;3.13;1.90;;;;;;;;;;5085180;28;20200;-68
2023/03/31 03:43:20;;;;;;;5.57;2.10;;;;;;;;;;5084845;28;20290;-68
2023/03/31 03:45:47;;;;;;;3.53;1.75;;;;;;;;;;5085403;28;20408;-68
2023/03/31 03:48:13;;;;;;;6.20;1.92;;;;;;;;;;5085194;28;20200;-68
2023/03/31 03:50:40;;;;;;;6.88;2.15;;;;;;;;;;5085049;28;20196;-68
2023/03/31 03:53:08;;;;;;;2.35;2.10;;;;;;;;;;5084785;28;20200;-68
2023/03/31 03:55:34;;;;;;;3.63;1.80;;;;;;;;;;5084676;28;20196;-68
2023/03/31 03:58:00;;;;;;;2.95;1.85;;;;;;;;;;5084907;28;20414;-68
2023/03/31 04:00:26;;;;;;;5.13;2.15;;;;;;;;;;5084770;28;20562;-68
2023/03/31 04:02:53;;;;;;;4.45;2.10;;;;;;;;;;5084589;28;20197;-68
2023/03/31 04:05:19;;;;;;;4.97;2.33;;;;;;;;;;5084587;28;20253;-68
2023/03/31 04:07:45;;;;;;;4.30;1.98;;;;;;;;;;5084490;28;20438;-68
2023/03/31 04:10:13;;;;;;;3.03;2.20;;;;;;;;;;5084349;28;20200;-68
2023/03/31 04:12:39;;;;;;;4.97;2.33;;;;;;;;;;5075588;28;20308;-68
2023/03/31 04:15:06;;;;;;;4.47;2.03;;;;;;;;;;5084601;28;20507;-68
2023/03/31 04:17:33;;;;;;;7.28;2.20;;;;;;;;;;5084228;28;20270;-68
2023/03/31 04:20:01;;;;;;;5.55;2.50;;;;;;;;;;5084862;28;20223;-68
2023/03/31 04:22:33;;;;;;;6.80;2.60;;;;;;;;;;5084141;28;20200;-68
2023/03/31 04:25:00;;;;;;;4.53;2.47;;;;;;;;;;5084260;28;20204;-68
2023/03/31 04:27:27;;;;;;;7.18;2.75;;;;;;;;;;5084198;28;20589;-68
2023/03/31 04:29:54;;;;;;;8.50;2.60;;;;;;;;;;5084272;28;20518;-68
2023/03/31 04:32:21;;;;;;;4.93;2.42;;;;;;;;;;5083954;28;20200;-68
2023/03/31 04:34:49;;;;;;;7.35;2.42;;;;;;;;;;5084131;28;20200;-68
2023/03/31 04:37:15;;;;;;;4.35;2.22;;;;;;;;;;5083810;28;20198;-68
2023/03/31 04:39:45;;;;;;;6.35;2.47;;;;;;;;;;5084096;28;20223;-68
2023/03/31 04:42:12;;;;;;;4.45;2.35;;;;;;;;;;5083815;28;20200;-68
2023/03/31 04:44:39;;;;;;;8.20;3.15;;;;;;;;;;5083881;28;20196;-68
2023/03/31 04:47:05;;;;;;;9.48;2.75;;;;;;;;;;5083849;28;20200;-69
2023/03/31 04:49:32;;;;;;;7.60;2.75;;;;;;;;;;5083796;28;20197;-69
2023/03/31 04:51:59;;;;;;;7.22;2.95;;;;;;;;;;5083500;28;20500;-69
2023/03/31 04:54:25;;;;;;;5.47;3.08;;;;;;;;;;5083977;28;20436;-69
2023/03/31 04:56:51;;;;;;;5.57;2.70;;;;;;;;;;5083915;28;20515;-69
2023/03/31 04:59:17;;;;;;;6.03;2.92;;;;;;;;;;5083656;28;20258;-69
2023/03/31 05:01:45;;;;;;;6.22;2.63;;;;;;;;;;5083380;28;20200;-69
2023/03/31 05:04:12;;;;;;;4.50;2.53;;;;;;;;;;5083658;28;20218;-69
2023/03/31 05:06:38;;;;;;;8.27;3.30;;;;;;;;;;5083468;28;20430;-70
2023/03/31 05:09:05;;;;;;;9.13;3.08;;;;;;;;;;5083608;28;20264;-70
2023/03/31 05:11:31;;;;;;;5.88;3.05;;;;;;;;;;5083348;28;20204;-68
2023/03/31 05:13:57;;;;;;;6.18;3.55;;;;;;;;;;5083142;28;20197;-68
2023/03/31 05:16:24;;;;;;;6.63;3.17;;;;;;;;;;5082670;28;20200;-70
2023/03/31 05:18:52;;;;;;;3.65;2.90;;;;;;;;;;5082844;28;20505;-70
2023/03/31 05:21:19;;;;;;;7.10;3.15;;;;;;;;;;5082804;28;20519;-70
2023/03/31 05:23:45;;;;;;;6.47;3.55;;;;;;;;;;5082798;28;20197;-70
2023/03/31 05:26:12;;;;;;;6.78;3.35;;;;;;;;;;5082643;28;20200;-70
2023/03/31 05:28:39;;;;;;;9.32;4.03;;;;;;;;;;5082580;28;20327;-70
2023/03/31 05:31:06;;;;;;;10.85;4.07;;;;;;;;;;5082789;28;20201;-69
2023/03/31 05:33:32;;;;;;;10.48;4.57;;;;;;;;;;5082368;28;20242;-70
2023/03/31 05:36:00;;;;;;;9.50;4.55;;;;;;;;;;5082761;28;20242;-69
2023/03/31 05:38:27;;;;;;;11.13;4.25;;;;;;;;;;5082353;28;20282;-69
2023/03/31 05:40:54;;;;;;;8.52;4.50;;;;;;;;;;5082584;28;20430;-70
2023/03/31 05:43:20;;;;;;;15.07;4.63;;;;;;;;;;5082352;28;20200;-70
2023/03/31 05:45:46;;;;;;;7.90;4.13;;;;;;;;;;5082597;28;20200;-70
2023/03/31 05:48:13;;;;;;;12.50;5.00;;;;;;;;;;5082337;28;20196;-70
2023/03/31 05:50:39;;;;;;;7.60;4.13;;;;;;;;;;5082264;28;20207;-70
2023/03/31 05:53:07;;;;;;;11.10;4.55;;;;;;;;;;5081673;28;20309;-70
2023/03/31 05:55:35;;;;;;;8.15;4.30;;;;;;;;;;5082126;28;20204;-69
2023/03/31 05:58:01;;;;;;;8.88;4.15;;;;;;;;;;5082086;28;20196;-69
2023/03/31 06:00:28;;;;;;;7.05;4.53;;;;;;;;;;5082363;28;20200;-69
2023/03/31 06:02:54;;;;;;;11.52;4.40;;;;;;;;;;5082067;28;20201;-69
2023/03/31 06:05:21;;;;;;;9.32;4.75;;;;;;;;;;5082475;28;20545;-69
2023/03/31 06:07:48;;;;;;;10.43;5.38;;;;;;;;;;5082239;28;20203;-69
2023/03/31 06:10:15;;;;;;;11.15;5.43;;;;;;;;;;5082267;28;20207;-70
2023/03/31 06:12:41;;;;;;;14.48;6.10;;;;;;;;;;5081929;28;20208;-70
2023/03/31 06:15:08;;;;;;;18.23;7.18;;;;;;;;;;5082412;28;20208;-70
2023/03/31 06:17:34;;;;;;;13.20;6.57;;;;;;;;;;5082070;28;20204;-70
2023/03/31 06:20:01;;;;;;;19.42;7.65;;;;;;;;;;5082365;28;20235;-70
2023/03/31 06:22:27;;;;;;;22.23;7.80;;;;;;;;;;5081859;28;20216;-69
2023/03/31 06:24:53;;;;;;;15.95;7.88;;;;;;;;;;5082382;28;20374;-69
2023/03/31 06:27:21;;;;;;;17.85;7.15;;;;;;;;;;5082290;28;20284;-70
2023/03/31 06:29:48;;;;;;;20.10;7.45;;;;;;;;;;5073153;28;20230;-69
2023/03/31 06:32:15;;;;;;;15.38;5.93;;;;;;;;;;5082297;28;20561;-69
2023/03/31 06:34:41;;;;;;;9.98;5.63;;;;;;;;;;5082007;28;20207;-69
2023/03/31 06:37:07;;;;;;;12.68;5.25;;;;;;;;;;5082130;28;20204;-69
2023/03/31 06:39:34;;;;;;;12.30;5.47;;;;;;;;;;5081977;28;20249;-69
2023/03/31 06:42:00;;;;;;;10.23;5.03;;;;;;;;;;5081934;28;20200;-69
2023/03/31 06:44:27;;;;;;;16.10;5.47;;;;;;;;;;5081879;28;20208;-69
2023/03/31 06:46:54;;;;;;;13.25;5.35;;;;;;;;;;5082242;28;20196;-69
2023/03/31 06:49:20;;;;;;;9.23;5.55;;;;;;;;;;5082105;28;20264;-69
2023/03/31 06:51:46;;;;;;;11.43;6.20;;;;;;;;;;5081748;28;20200;-69
2023/03/31 06:54:13;;;;;;;15.13;5.78;;;;;;;;;;5082279;28;20454;-69
2023/03/31 06:56:39;;;;;;;13.73;5.97;;;;;;;;;;5081826;28;20271;-69
2023/03/31 06:59:05;;;;;;;15.13;6.30;;;;;;;;;;5081656;28;20228;-60
2023/03/31 07:01:36;;;;;;;12.95;5.38;;;;;;;;;;5081907;28;20199;-60
2023/03/31 07:04:02;;;;;;;16.05;6.60;;;;;;;;;;5082063;28;20200;-59
2023/03/31 07:06:28;;;;;;;13.27;5.78;;;;;;;;;;5075995;28;20441;-59
2023/03/31 07:08:54;;;;;;;16.42;5.70;;;;;;;;;;5072140;28;20504;-59
2023/03/31 07:11:21;;;;;;;13.25;6.20;;;;;;;;;;5073813;28;20395;-59
2023/03/31 07:13:47;;;;;;;8.55;5.63;;;;;;;;;;5068518;28;20567;-59
2023/03/31 07:16:13;;;;;;;10.70;5.72;;;;;;;;;;5075885;28;20429;-59
2023/03/31 07:18:41;;;;;;;10.00;5.72;;;;;;;;;;5075705;28;20235;-59
2023/03/31 07:21:07;;;;;;;10.93;5.07;;;;;;;;;;5076500;28;20208;-59
2023/03/31 07:23:33;;;;;;;8.52;4.47;;;;;;;;;;5076478;28;20508;-59
2023/03/31 07:26:01;;;;;;;8.30;4.40;;;;;;;;;;5077288;28;20227;-59
2023/03/31 07:28:27;;;;;;;6.05;3.78;;;;;;;;;;5076768;28;20231;-59
2023/03/31 07:30:53;;;;;;;8.80;3.72;;;;;;;;;;5077147;28;20208;-59
2023/03/31 07:33:20;;;;;;;5.57;3.80;;;;;;;;;;5077536;28;20524;-59
2023/03/31 07:35:47;;;;;;;6.50;3.40;;;;;;;;;;5077907;28;20239;-59
2023/03/31 07:38:14;;;;;;;3.17;2.75;;;;;;;;;;5077211;28;20212;-58
2023/03/31 07:40:40;;;;;;;5.28;2.85;;;;;;;;;;5079036;28;20224;-59
2023/03/31 07:43:07;;;;;;;3.55;2.92;;;;;;;;;;5081960;28;20208;-59
2023/03/31 07:45:34;;;;;;;2.55;1.83;;;;;;;;;;5082005;28;20212;-59
2023/03/31 07:48:00;;;;;;;5.88;2.58;;;;;;;;;;5081833;28;20285;-60
2023/03/31 07:50:26;;;;;;;2.75;1.92;;;;;;;;;;5081231;28;20212;-59
2023/03/31 07:52:54;;;;;;;2.22;1.63;;;;;;;;;;5080910;28;20208;-59
2023/03/31 07:55:22;;;;;;;3.78;1.40;;;;;;;;;;5081361;28;20220;-58
2023/03/31 07:57:50;;;;;;;5.95;1.50;;;;;;;;;;5080459;28;20243;-59
2023/03/31 08:00:17;;;;;;;1.70;1.30;;;;;;;;;;5080242;28;20216;-61
2023/03/31 08:02:43;;;;;;;2.38;1.30;;;;;;;;;;5080371;28;20228;-61
2023/03/31 08:05:10;;;;;;;2.30;1.20;;;;;;;;;;5080023;28;20270;-61
2023/03/31 08:07:38;;;;;;;1.10;1.10;;;;;;;;;;5079229;28;20232;-61
2023/03/31 08:10:06;;;;;;;1.08;0.90;;;;;;;;;;5079447;28;20565;-60
2023/03/31 08:12:32;;;;;;;2.83;1.20;;;;;;;;;;5076747;28;20223;-61
2023/03/31 08:14:58;;;;;;;1.33;1.23;;;;;;;;;;5079821;28;20451;-60
2023/03/31 08:17:25;;;;;;;3.05;1.20;;;;;;;;;;5080345;28;20372;-61
2023/03/31 08:19:51;;;;;;;1.00;0.88;;;;;;;;;;5080401;28;20444;-62
2023/03/31 08:22:17;;;;;;;1.00;1.00;;;;;;;;;;5081693;28;20516;-62
2023/03/31 08:24:44;;;;;;;1.52;1.48;;;;;;;;;;5081993;28;20449;-62
2023/03/31 08:27:11;;;;;;;3.42;1.35;;;;;;;;;;5081925;28;20231;-62
2023/03/31 08:29:37;;;;;;;9.27;3.97;;;;;;;;;;5081482;28;20432;-62
2023/03/31 08:32:04;;;;;;;9.77;4.20;;;;;;;;;;5080987;28;20227;-60
2023/03/31 08:34:30;;;;;;;4.15;2.70;;;;;;;;;;5081262;28;20219;-61
2023/03/31 08:36:56;;;;;;;2.60;1.58;;;;;;;;;;5080872;28;20527;-62
2023/03/31 08:39:23;;;;;;;1.20;1.08;;;;;;;;;;5081266;28;20250;-64
2023/03/31 08:41:54;;;;;;;2.75;1.25;;;;;;;;;;5081645;28;20209;-61
2023/03/31 08:44:26;;;;;;;1.60;1.10;;;;;;;;;;5081880;28;20223;-60
2023/03/31 08:46:54;;;;;;;1.77;1.02;;;;;;;;;;5081333;28;20209;-63
2023/03/31 08:49:21;;;;;;;1.20;1.10;;;;;;;;;;5081120;28;20212;-61
2023/03/31 08:51:48;;;;;;;3.92;1.00;;;;;;;;;;5080105;28;20212;-60
2023/03/31 08:54:17;;;;;;;0.85;0.60;;;;;;;;;;5081378;28;20212;-62
2023/03/31 08:56:45;;;;;;;2.22;0.80;;;;;;;;;;5079069;28;20266;-59
2023/03/31 08:59:17;;;;;;;1.15;0.90;;;;;;;;;;5075244;28;20295;-60
2023/03/31 09:01:47;;;;;;;0.70;0.70;;;;;;;;;;5081173;28;20235;-60
2023/03/31 09:04:19;;;;;;;2.28;1.00;;;;;;;;;;5080941;28;20568;-61
2023/03/31 09:06:49;;;;;;;1.55;0.90;;;;;;;;;;5080645;28;20212;-60
2023/03/31 09:09:20;;;;;;;2.50;0.88;;;;;;;;;;5080776;28;20208;-61
2023/03/31 09:11:50;;;;;;;0.90;0.90;;;;;;;;;;5080075;28;20468;-60
2023/03/31 09:14:21;;;;;;;0.60;0.60;;;;;;;;;;5080320;28;20212;-60
2023/03/31 09:16:50;;;;;;;2.55;0.70;;;;;;;;;;5080105;28;20216;-60
2023/03/31 09:19:19;;;;;;;0.70;0.70;;;;;;;;;;5080157;28;20282;-60
2023/03/31 09:21:48;;;;;;;1.75;0.90;;;;;;;;;;5080053;28;20212;-61
2023/03/31 09:24:16;;;;;;;1.05;1.05;;;;;;;;;;5080644;28;20216;-60
2023/03/31 09:26:46;;;;;;;1.13;0.80;;;;;;;;;;5080567;28;20258;-61
2023/03/31 09:29:17;;;;;;;1.73;0.75;;;;;;;;;;5080831;28;20319;-58
2023/03/31 09:31:44;;;;;;;1.48;0.60;;;;;;;;;;5080237;28;20216;-60
2023/03/31 09:34:15;;;;;;;1.77;0.80;;;;;;;;;;5080355;28;20212;-61
2023/03/31 09:36:41;;;;;;;4.05;1.20;;;;;;;;;;5079956;28;20418;-61
2023/03/31 09:39:10;;;;;;;2.28;1.00;;;;;;;;;;5079629;28;20238;-61
2023/03/31 09:41:36;;;;;;;1.52;0.80;;;;;;;;;;5080505;28;20212;-60
2023/03/31 09:44:02;;;;;;;1.25;0.70;;;;;;;;;;5081005;28;20212;-59
2023/03/31 09:46:29;;;;;;;2.45;1.20;;;;;;;;;;5080287;28;20216;-60
2023/03/31 09:48:59;;;;;;;1.90;0.82;;;;;;;;;;5080963;28;20230;-59
2023/03/31 09:51:30;;;;;;;2.55;1.00;;;;;;;;;;5080527;28;20212;-59
2023/03/31 09:53:58;;;;;;;1.83;0.70;;;;;;;;;;5080547;28;20248;-59
2023/03/31 09:56:43;;;;;;;0.80;0.70;;;;;;;;;;5081760;28;20220;-59
2023/03/31 09:59:13;;;;;;;1.15;0.77;;;;;;;;;;5080109;28;20278;-60
2023/03/31 10:01:40;;;;;;;2.53;1.00;;;;;;;;;;5079983;28;20219;-59
2023/03/31 10:04:08;;;;;;;3.55;1.10;;;;;;;;;;5080537;28;20399;-60
2023/03/31 10:06:40;;;;;;;4.75;1.00;;;;;;;;;;5080380;28;20387;-60
2023/03/31 10:09:06;;;;;;;4.07;1.45;;;;;;;;;;5072287;28;20212;-60
2023/03/31 10:11:33;;;;;;;5.63;1.23;;;;;;;;;;5071051;28;20220;-60
2023/03/31 10:14:01;;;;;;;1.92;1.13;;;;;;;;;;5076220;28;20216;-61
2023/03/31 10:16:29;;;;;;;2.92;0.90;;;;;;;;;;5070878;28;20209;-62
2023/03/31 10:19:10;;;;;;;6.32;1.10;;;;;;;;;;5079014;28;20513;-61
2023/03/31 10:21:38;;;;;;;5.10;1.58;;;;;;;;;;5079127;28;20212;-61
2023/03/31 10:24:08;;;;;;;4.15;1.15;;;;;;;;;;5079297;28;20542;-61
2023/03/31 10:26:34;;;;;;;3.22;1.50;;;;;;;;;;5079651;28;20380;-61
2023/03/31 10:29:01;;;;;;;4.25;1.48;;;;;;;;;;5079498;28;20278;-60
2023/03/31 10:31:33;;;;;;;3.17;1.13;;;;;;;;;;5075384;28;20201;-60
2023/03/31 10:34:05;;;;;;;5.68;1.50;;;;;;;;;;5079245;28;20365;-62
2023/03/31 10:36:31;;;;;;;7.35;1.35;;;;;;;;;;5079086;28;20275;-60
2023/03/31 10:38:59;;;;;;;3.97;1.38;;;;;;;;;;5080848;28;20208;-60
2023/03/31 10:41:26;;;;;;;3.00;1.77;;;;;;;;;;5080676;28;20293;-61
2023/03/31 10:43:53;;;;;;;3.17;1.48;;;;;;;;;;5078740;28;20494;-60
2023/03/31 10:46:20;;;;;;;3.30;1.25;;;;;;;;;;5079769;28;20295;-60
2023/03/31 10:48:47;;;;;;;3.85;1.38;;;;;;;;;;5077956;28;20397;-59
2023/03/31 10:51:15;;;;;;;2.38;1.08;;;;;;;;;;5072865;28;20235;-59
2023/03/31 10:53:42;;;;;;;5.03;1.60;;;;;;;;;;5079370;28;20213;-60
2023/03/31 10:56:17;;;;;;;3.45;1.40;;;;;;;;;;5075176;28;20266;-59
2023/03/31 10:58:49;;;;;;;6.40;1.40;;;;;;;;;;5076214;28;20216;-58
2023/03/31 11:01:24;;;;;;;2.97;1.40;;;;;;;;;;5079142;28;20228;-59
2023/03/31 11:03:54;;;;;;;3.50;1.35;;;;;;;;;;5078819;28;20215;-59
2023/03/31 11:06:22;;;;;;;3.42;1.42;;;;;;;;;;5078667;28;20282;-62
2023/03/31 11:08:54;;;;;;;5.40;1.23;;;;;;;;;;5070061;28;20238;-62
2023/03/31 11:11:27;;;;;;;2.65;1.70;;;;;;;;;;5078499;28;20388;-62
2023/03/31 11:13:56;;;;;;;3.47;1.30;;;;;;;;;;5078279;28;20250;-62
2023/03/31 11:16:27;;;;;;;3.13;1.30;;;;;;;;;;5081279;28;20217;-59
2023/03/31 11:18:58;;;;;;;6.47;1.60;;;;;;;;;;5083060;28;20275;-59
2023/03/31 11:21:27;;;;;;;6.70;1.35;;;;;;;;;;5082674;28;20412;-60
2023/03/31 11:24:01;;;;;;;4.43;1.58;;;;;;;;;;5082792;28;20247;-60
2023/03/31 11:26:35;;;;;;;2.97;1.13;;;;;;;;;;5081465;28;20236;-59
2023/03/31 11:29:06;;;;;;;2.38;1.10;;;;;;;;;;5077895;28;20609;-59
2023/03/31 11:31:37;;;;;;;4.47;1.27;;;;;;;;;;5076847;28;20504;-60
2023/03/31 11:34:15;;;;;;;2.50;0.70;;;;;;;;;;5084280;28;20212;-60
2023/03/31 11:36:52;;;;;;;1.58;0.80;;;;;;;;;;5084471;28;20213;-60
2023/03/31 11:39:26;;;;;;;1.77;0.52;;;;;;;;;;5084529;28;20534;-60
2023/03/31 11:41:54;;;;;;;1.27;0.60;;;;;;;;;;5075900;28;20224;-59
2023/03/31 11:44:22;;;;;;;5.28;0.70;;;;;;;;;;5082295;28;20307;-59
2023/03/31 11:46:51;;;;;;;3.60;0.60;;;;;;;;;;5084775;28;20212;-60
2023/03/31 11:49:20;;;;;;;1.27;0.52;;;;;;;;;;5084328;28;20437;-59
2023/03/31 11:51:48;;;;;;;0.65;0.65;;;;;;;;;;5080913;28;20279;-61
2023/03/31 11:54:17;;;;;;;1.75;0.90;;;;;;;;;;5077688;28;20209;-60
2023/03/31 11:56:43;;;;;;;1.13;0.80;;;;;;;;;;5078583;28;20220;-60
2023/03/31 11:59:13;;;;;;;3.80;0.52;;;;;;;;;;5078198;28;20212;-60
2023/03/31 12:01:42;;;;;;;0.85;0.47;;;;;;;;;;5082036;28;20228;-60
2023/03/31 12:04:11;;;;;;;0.75;0.40;;;;;;;;;;5078719;28;20208;-59
2023/03/31 12:06:40;;;;;;;1.75;0.50;;;;;;;;;;5085020;28;20201;-60
2023/03/31 12:09:11;;;;;;;2.97;0.50;;;;;;;;;;5079364;28;20338;-60
2023/03/31 12:11:40;;;;;;;0.30;0.30;;;;;;;;;;5080755;28;20542;-60
2023/03/31 12:14:13;;;;;;;1.67;0.40;;;;;;;;;;5077378;28;20215;-60
2023/03/31 12:16:42;;;;;;;0.40;0.40;;;;;;;;;;5078206;28;20204;-73
2023/03/31 12:19:13;;;;;;;0.43;0.20;;;;;;;;;;5084322;28;20500;-71
2023/03/31 12:21:40;;;;;;;0.30;0.30;;;;;;;;;;5084504;28;20217;-71
2023/03/31 12:24:10;;;;;;;0.98;0.45;;;;;;;;;;5083885;28;20204;-71
2023/03/31 12:26:41;;;;;;;2.58;0.55;;;;;;;;;;5083003;28;20400;-71
2023/03/31 12:29:14;;;;;;;0.30;0.30;;;;;;;;;;5084171;28;20224;-71
2023/03/31 12:31:43;;;;;;;0.85;0.60;;;;;;;;;;5084012;28;20192;-72
2023/03/31 12:34:12;;;;;;;0.30;0.30;;;;;;;;;;5074875;28;20496;-72
2023/03/31 12:36:45;;;;;;;1.95;0.40;;;;;;;;;;5083277;28;20211;-72
2023/03/31 12:39:18;;;;;;;0.30;0.30;;;;;;;;;;5075758;28;20397;-72
2023/03/31 12:41:46;;;;;;;0.55;0.40;;;;;;;;;;5084102;28;20217;-72
2023/03/31 12:44:21;;;;;;;1.98;0.45;;;;;;;;;;5083832;28;20496;-72
2023/03/31 12:47:00;;;;;;;0.68;0.52;;;;;;;;;;5083738;28;20500;-72
2023/03/31 12:49:33;;;;;;;0.40;0.40;;;;;;;;;;5083752;28;20230;-72
2023/03/31 12:52:01;;;;;;;0.88;0.40;;;;;;;;;;5083616;28;20196;-72
2023/03/31 12:54:42;;;;;;;2.33;0.40;;;;;;;;;;5083713;28;20522;-72
2023/03/31 12:57:20;;;;;;;0.45;0.40;;;;;;;;;;5083297;28;20238;-72
2023/03/31 12:59:46;;;;;;;0.30;0.30;;;;;;;;;;5083561;28;20202;-72
2023/03/31 13:02:22;;;;;;;1.45;0.50;;;;;;;;;;5083510;28;20235;-72
2023/03/31 13:04:49;;;;;;;0.82;0.40;;;;;;;;;;5083463;28;20196;-72
2023/03/31 13:07:30;;;;;;;0.47;0.45;;;;;;;;;;5083238;28;20483;-72
2023/03/31 13:09:57;;;;;;;1.90;0.90;;;;;;;;;;5082924;28;20522;-72
2023/03/31 13:12:26;;;;;;;0.85;0.70;;;;;;;;;;5082874;28;20530;-72
2023/03/31 13:14:53;;;;;;;3.45;0.85;;;;;;;;;;5083155;28;20223;-72
2023/03/31 13:17:29;;;;;;;1.58;0.90;;;;;;;;;;5082765;28;20197;-72
2023/03/31 13:19:56;;;;;;;1.90;0.82;;;;;;;;;;5082840;28;20196;-72
2023/03/31 13:22:30;;;;;;;2.00;0.90;;;;;;;;;;5082603;28;20234;-72
2023/03/31 13:25:26;;;;;;;2.95;1.05;;;;;;;;;;5082981;28;20196;-72
2023/03/31 13:27:52;;;;;;;4.50;0.80;;;;;;;;;;5082874;28;20593;-71
2023/03/31 13:30:37;;;;;;;3.63;1.00;;;;;;;;;;5082611;28;20204;-72
2023/03/31 13:33:07;;;;;;;2.83;1.13;;;;;;;;;;5082797;28;20208;-71
2023/03/31 13:35:35;;;;;;;4.15;0.98;;;;;;;;;;5082750;28;20224;-72
2023/03/31 13:38:07;;;;;;;3.65;1.17;;;;;;;;;;5082441;28;20269;-72
2023/03/31 13:40:55;;;;;;;2.58;0.82;;;;;;;;;;5082513;28;20226;-72
2023/03/31 13:43:32;;;;;;;3.45;1.30;;;;;;;;;;5075512;28;20204;-72
2023/03/31 13:46:14;;;;;;;4.72;1.27;;;;;;;;;;5082710;28;20212;-72
2023/03/31 13:48:50;;;;;;;3.08;0.98;;;;;;;;;;5080599;28;20204;-72
2023/03/31 13:51:23;;;;;;;2.90;1.00;;;;;;;;;;5075329;28;20199;-72
2023/03/31 13:54:04;;;;;;;1.08;0.70;;;;;;;;;;5082118;28;20196;-71
2023/03/31 13:56:42;;;;;;;2.22;0.70;;;;;;;;;;5059625;28;20201;-70
2023/03/31 13:59:13;;;;;;;0.75;0.68;;;;;;;;;;5082407;28;20246;-71
2023/03/31 14:01:54;;;;;;;0.73;0.30;;;;;;;;;;5082705;28;20254;-71
2023/03/31 14:04:30;;;;;;;1.92;0.50;;;;;;;;;;5074464;28;20202;-71
2023/03/31 14:06:57;;;;;;;0.50;0.20;;;;;;;;;;5082525;28;20200;-70
2023/03/31 14:09:25;;;;;;;0.60;0.30;;;;;;;;;;5082892;28;20200;-72
2023/03/31 14:11:51;;;;;;;2.83;0.50;;;;;;;;;;5082392;28;20407;-72
2023/03/31 14:14:18;;;;;;;1.10;1.00;;;;;;;;;;5082436;28;20238;-72
2023/03/31 14:16:46;;;;;;;1.50;0.70;;;;;;;;;;5082868;28;20205;-72
2023/03/31 14:19:28;;;;;;;0.55;0.35;;;;;;;;;;5082396;28;20271;-72
2023/03/31 14:21:59;;;;;;;0.50;0.38;;;;;;;;;;5073163;28;20531;-72
2023/03/31 14:24:29;;;;;;;3.33;0.40;;;;;;;;;;5082354;28;20271;-72
2023/03/31 14:27:00;;;;;;;0.93;0.35;;;;;;;;;;5081884;28;20219;-72
2023/03/31 14:29:31;;;;;;;0.43;0.35;;;;;;;;;;5082330;28;20496;-72
2023/03/31 14:32:02;;;;;;;2.22;0.40;;;;;;;;;;5082189;28;20488;-72
2023/03/31 14:34:35;;;;;;;0.40;0.40;;;;;;;;;;5082374;28;20197;-72
2023/03/31 14:37:04;;;;;;;0.30;0.30;;;;;;;;;;5082213;28;20200;-72
2023/03/31 14:39:31;;;;;;;1.80;0.45;;;;;;;;;;5082466;28;20238;-71
2023/03/31 14:42:00;;;;;;;0.50;0.50;;;;;;;;;;5081818;28;20219;-71
2023/03/31 14:44:26;;;;;;;0.43;0.43;;;;;;;;;;5081903;28;20242;-70
2023/03/31 14:46:56;;;;;;;0.43;0.30;;;;;;;;;;5082662;28;20258;-70
2023/03/31 14:49:26;;;;;;;0.30;0.30;;;;;;;;;;5081510;28;20192;-71
2023/03/31 14:51:53;;;;;;;0.52;0.30;;;;;;;;;;5081586;28;20193;-71